Time;durP1;ratioP1;P1;durP2;ratioP2;P2;SDS_P1;SDS_P2;PMS_P1;PMS_P2;Temp;Humidity;BMP_temperature;BMP_pressure;BME280_temperature;BME280_humidity;BME280_pressure;Samples;Min_cycle;Max_cycle;Signal;HPM_P1;HPM_P2
2023/09/13 00:00:09;;;;;;;19.73;8.27;;;;;;;;;;4991700;28;20120;-70
2023/09/13 00:02:35;;;;;;;15.77;7.35;;;;;;;;;;4974811;28;20024;-70
2023/09/13 00:05:00;;;;;;;14.45;7.78;;;;;;;;;;4990471;28;20529;-70
2023/09/13 00:07:26;;;;;;;17.35;7.93;;;;;;;;;;4993792;28;20511;-70
2023/09/13 00:09:51;;;;;;;17.85;7.43;;;;;;;;;;4989866;28;20035;-70
2023/09/13 00:12:16;;;;;;;19.90;8.15;;;;;;;;;;4998625;28;20026;-70
2023/09/13 00:14:42;;;;;;;16.92;8.55;;;;;;;;;;4993228;28;20032;-69
2023/09/13 00:17:07;;;;;;;19.80;8.05;;;;;;;;;;4991373;28;20392;-70
2023/09/13 00:19:32;;;;;;;17.45;8.07;;;;;;;;;;4992161;28;20316;-70
2023/09/13 00:21:58;;;;;;;18.98;8.52;;;;;;;;;;4995068;28;20034;-70
2023/09/13 00:24:24;;;;;;;21.08;7.95;;;;;;;;;;4998583;28;20033;-70
2023/09/13 00:26:50;;;;;;;18.70;8.60;;;;;;;;;;4995874;28;20030;-70
2023/09/13 00:29:15;;;;;;;17.60;8.10;;;;;;;;;;4992810;28;20021;-70
2023/09/13 00:31:40;;;;;;;20.38;8.70;;;;;;;;;;4995072;28;20038;-70
2023/09/13 00:34:07;;;;;;;17.40;8.25;;;;;;;;;;5002705;28;20038;-70
2023/09/13 00:36:33;;;;;;;20.35;8.13;;;;;;;;;;5011500;28;20574;-70
2023/09/13 00:38:58;;;;;;;23.27;9.18;;;;;;;;;;5005763;28;20550;-70
2023/09/13 00:41:23;;;;;;;19.35;8.60;;;;;;;;;;5004304;28;20026;-70
2023/09/13 00:43:49;;;;;;;21.00;8.80;;;;;;;;;;4995802;28;20082;-70
2023/09/13 00:46:15;;;;;;;21.08;8.88;;;;;;;;;;4998268;28;20034;-70
2023/09/13 00:48:41;;;;;;;22.80;9.35;;;;;;;;;;4995077;28;20125;-70
2023/09/13 00:51:08;;;;;;;20.05;8.88;;;;;;;;;;4992368;28;20135;-70
2023/09/13 00:53:34;;;;;;;23.23;9.20;;;;;;;;;;4995026;28;20034;-69
2023/09/13 00:56:00;;;;;;;21.33;9.20;;;;;;;;;;4990872;28;20073;-70
2023/09/13 00:58:26;;;;;;;21.60;8.98;;;;;;;;;;4998178;28;20045;-70
2023/09/13 01:00:53;;;;;;;21.80;8.98;;;;;;;;;;4996785;28;20531;-70
2023/09/13 01:03:19;;;;;;;23.13;9.13;;;;;;;;;;4991595;28;20177;-70
2023/09/13 01:05:46;;;;;;;20.75;9.13;;;;;;;;;;4993457;28;20121;-69
2023/09/13 01:08:12;;;;;;;20.25;9.27;;;;;;;;;;4991967;28;20070;-70
2023/09/13 01:10:38;;;;;;;26.17;9.52;;;;;;;;;;4992695;28;20061;-70
2023/09/13 01:13:03;;;;;;;18.92;8.65;;;;;;;;;;5000035;28;20125;-70
2023/09/13 01:15:33;;;;;;;19.75;8.80;;;;;;;;;;5001969;28;20045;-70
2023/09/13 01:18:06;;;;;;;22.58;9.25;;;;;;;;;;4998728;28;20672;-70
2023/09/13 01:21:02;;;;;;;20.67;8.80;;;;;;;;;;4996059;28;20025;-70
2023/09/13 01:24:04;;;;;;;21.65;8.60;;;;;;;;;;4993783;28;20058;-70
2023/09/13 01:26:36;;;;;;;21.33;9.35;;;;;;;;;;4995255;28;20038;-69
2023/09/13 01:29:04;;;;;;;23.40;9.80;;;;;;;;;;5000909;28;20122;-70
2023/09/13 01:31:31;;;;;;;24.30;9.48;;;;;;;;;;5001965;28;20080;-70
2023/09/13 01:33:56;;;;;;;23.63;9.98;;;;;;;;;;4996734;28;20057;-70
2023/09/13 01:36:21;;;;;;;21.92;9.00;;;;;;;;;;4995048;28;20073;-70
2023/09/13 01:38:47;;;;;;;20.67;8.90;;;;;;;;;;4999826;28;20029;-69
2023/09/13 01:41:30;;;;;;;27.90;8.93;;;;;;;;;;5001000;28;20061;-70
2023/09/13 01:43:56;;;;;;;22.35;9.35;;;;;;;;;;5000083;28;20056;-70
2023/09/13 01:46:27;;;;;;;23.60;9.23;;;;;;;;;;4994868;28;20037;-70
2023/09/13 01:48:57;;;;;;;21.77;9.35;;;;;;;;;;4995538;28;20041;-70
2023/09/13 01:51:25;;;;;;;27.02;10.27;;;;;;;;;;4980576;28;20050;-69
2023/09/13 01:53:51;;;;;;;28.10;10.68;;;;;;;;;;4994814;28;20037;-69
2023/09/13 01:56:21;;;;;;;27.42;11.10;;;;;;;;;;4994272;28;20030;-70
2023/09/13 01:58:47;;;;;;;29.45;12.18;;;;;;;;;;5001000;28;20060;-70
2023/09/13 02:01:12;;;;;;;30.20;11.55;;;;;;;;;;5002120;28;20426;-70
2023/09/13 02:03:37;;;;;;;31.20;12.30;;;;;;;;;;5000011;28;20042;-70
2023/09/13 02:06:03;;;;;;;31.83;13.02;;;;;;;;;;5004345;28;20036;-69
2023/09/13 02:08:28;;;;;;;35.55;14.23;;;;;;;;;;5000093;28;20065;-70
2023/09/13 02:10:53;;;;;;;35.38;14.18;;;;;;;;;;4992995;28;20044;-69
2023/09/13 02:13:19;;;;;;;40.08;13.45;;;;;;;;;;4996831;28;20547;-70
2023/09/13 02:15:44;;;;;;;44.65;14.85;;;;;;;;;;5001205;28;20832;-70
2023/09/13 02:18:09;;;;;;;42.28;15.13;;;;;;;;;;5002846;28;20117;-69
2023/09/13 02:20:35;;;;;;;43.25;15.73;;;;;;;;;;4999745;28;20034;-70
2023/09/13 02:23:00;;;;;;;42.65;15.98;;;;;;;;;;4978950;28;20038;-70
2023/09/13 02:25:26;;;;;;;44.90;16.23;;;;;;;;;;4988591;28;20068;-70
2023/09/13 02:27:51;;;;;;;45.97;16.30;;;;;;;;;;4990953;28;20061;-70
2023/09/13 02:30:16;;;;;;;44.95;16.67;;;;;;;;;;5000458;28;20030;-70
2023/09/13 02:32:42;;;;;;;49.20;18.38;;;;;;;;;;4987186;28;20053;-70
2023/09/13 02:35:08;;;;;;;46.78;16.90;;;;;;;;;;5000761;28;20027;-70
2023/09/13 02:37:33;;;;;;;51.80;18.00;;;;;;;;;;4999982;28;20073;-69
2023/09/13 02:39:59;;;;;;;50.58;18.30;;;;;;;;;;4990794;28;20505;-70
2023/09/13 02:42:24;;;;;;;48.28;18.17;;;;;;;;;;4998153;28;20530;-70
2023/09/13 02:44:50;;;;;;;60.67;19.30;;;;;;;;;;4993670;28;20041;-69
2023/09/13 02:47:16;;;;;;;53.47;18.15;;;;;;;;;;4995517;28;20018;-70
2023/09/13 02:49:41;;;;;;;46.42;17.88;;;;;;;;;;4999670;28;20478;-70
2023/09/13 02:52:07;;;;;;;59.63;19.20;;;;;;;;;;4982917;28;20108;-70
2023/09/13 02:54:32;;;;;;;52.60;18.58;;;;;;;;;;4993046;28;20037;-70
2023/09/13 02:56:58;;;;;;;50.22;18.25;;;;;;;;;;4984439;28;20039;-69
2023/09/13 02:59:23;;;;;;;58.15;19.45;;;;;;;;;;4995725;28;20029;-70
2023/09/13 03:01:50;;;;;;;58.75;19.17;;;;;;;;;;4993933;28;20030;-70
2023/09/13 03:04:15;;;;;;;58.42;18.80;;;;;;;;;;4993293;28;20520;-70
2023/09/13 03:06:40;;;;;;;57.47;18.88;;;;;;;;;;4999179;28;20100;-70
2023/09/13 03:09:06;;;;;;;61.42;18.98;;;;;;;;;;4987666;28;20038;-70
2023/09/13 03:11:31;;;;;;;62.45;18.98;;;;;;;;;;4987493;28;20033;-70
2023/09/13 03:13:57;;;;;;;62.22;19.23;;;;;;;;;;4993202;28;20041;-70
2023/09/13 03:16:23;;;;;;;54.42;17.40;;;;;;;;;;4996266;28;20523;-70
2023/09/13 03:18:50;;;;;;;57.45;17.52;;;;;;;;;;4999905;28;20116;-70
2023/09/13 03:21:18;;;;;;;63.88;18.95;;;;;;;;;;4997075;28;20061;-70
2023/09/13 03:23:45;;;;;;;53.15;18.25;;;;;;;;;;4993379;28;20028;-69
2023/09/13 03:26:14;;;;;;;51.58;17.50;;;;;;;;;;4996440;28;20038;-70
2023/09/13 03:28:40;;;;;;;50.63;17.08;;;;;;;;;;4989956;28;20451;-70
2023/09/13 03:31:13;;;;;;;50.60;17.15;;;;;;;;;;4998163;28;20701;-70
2023/09/13 03:33:39;;;;;;;47.97;16.13;;;;;;;;;;5005069;28;20053;-70
2023/09/13 03:36:09;;;;;;;46.70;15.95;;;;;;;;;;4993735;28;20038;-70
2023/09/13 03:38:40;;;;;;;49.33;16.33;;;;;;;;;;5001236;28;20034;-70
2023/09/13 03:41:07;;;;;;;53.22;18.02;;;;;;;;;;4998021;28;20073;-70
2023/09/13 03:43:32;;;;;;;42.88;16.35;;;;;;;;;;5001568;28;20555;-70
2023/09/13 03:45:59;;;;;;;46.40;16.08;;;;;;;;;;4999508;28;20053;-70
2023/09/13 03:48:24;;;;;;;43.10;14.30;;;;;;;;;;5000685;28;20524;-70
2023/09/13 03:50:49;;;;;;;45.28;15.80;;;;;;;;;;4998743;28;20044;-69
2023/09/13 03:53:15;;;;;;;41.67;15.23;;;;;;;;;;5001198;28;20359;-70
2023/09/13 03:55:41;;;;;;;47.03;14.95;;;;;;;;;;4998928;28;20626;-70
2023/09/13 03:58:06;;;;;;;43.90;15.68;;;;;;;;;;4993655;28;20049;-70
2023/09/13 04:00:33;;;;;;;40.95;13.93;;;;;;;;;;4991304;28;20575;-70
2023/09/13 04:02:58;;;;;;;41.20;14.43;;;;;;;;;;4999263;28;20038;-70
2023/09/13 04:05:24;;;;;;;42.53;15.15;;;;;;;;;;4998246;28;20024;-69
2023/09/13 04:07:49;;;;;;;41.10;14.07;;;;;;;;;;4992709;28;20034;-70
2023/09/13 04:10:15;;;;;;;45.10;14.80;;;;;;;;;;4992810;28;20045;-69
2023/09/13 04:12:40;;;;;;;42.28;15.15;;;;;;;;;;4997585;28;20026;-70
2023/09/13 04:15:06;;;;;;;39.08;14.55;;;;;;;;;;4998271;28;20099;-70
2023/09/13 04:17:32;;;;;;;42.00;14.70;;;;;;;;;;4992687;28;20411;-70
2023/09/13 04:19:57;;;;;;;35.35;14.02;;;;;;;;;;4990701;28;20030;-70
2023/09/13 04:22:22;;;;;;;38.55;14.15;;;;;;;;;;5000344;28;20062;-70
2023/09/13 04:24:48;;;;;;;36.13;14.23;;;;;;;;;;4998069;28;20033;-70
2023/09/13 04:27:20;;;;;;;36.22;13.43;;;;;;;;;;4992148;28;20594;-69
2023/09/13 04:29:46;;;;;;;37.25;13.93;;;;;;;;;;4991782;28;20033;-69
2023/09/13 04:32:11;;;;;;;36.72;12.80;;;;;;;;;;4997618;28;20030;-70
2023/09/13 04:34:37;;;;;;;44.15;14.00;;;;;;;;;;4998148;28;20040;-70
2023/09/13 04:37:04;;;;;;;34.28;13.65;;;;;;;;;;4988811;28;20038;-70
2023/09/13 04:39:31;;;;;;;34.92;13.60;;;;;;;;;;4997794;28;20538;-69
2023/09/13 04:41:58;;;;;;;34.22;12.60;;;;;;;;;;4993239;28;20026;-69
2023/09/13 04:44:23;;;;;;;34.00;13.68;;;;;;;;;;4992677;28;20026;-70
2023/09/13 04:46:49;;;;;;;33.67;13.85;;;;;;;;;;4996208;28;20027;-70
2023/09/13 04:49:14;;;;;;;37.50;13.52;;;;;;;;;;4998477;28;20745;-70
2023/09/13 04:51:39;;;;;;;37.58;14.25;;;;;;;;;;4993258;28;20083;-70
2023/09/13 04:54:05;;;;;;;38.30;14.32;;;;;;;;;;4990682;28;20041;-69
2023/09/13 04:56:30;;;;;;;37.28;14.10;;;;;;;;;;4984628;28;20030;-70
2023/09/13 04:58:56;;;;;;;37.15;13.25;;;;;;;;;;4977555;28;20034;-69
2023/09/13 05:01:21;;;;;;;30.05;13.38;;;;;;;;;;4985856;28;20062;-69
2023/09/13 05:03:47;;;;;;;34.88;13.27;;;;;;;;;;4989262;28;20037;-70
2023/09/13 05:06:13;;;;;;;30.25;12.05;;;;;;;;;;4989554;28;20072;-70
2023/09/13 05:08:38;;;;;;;38.60;14.18;;;;;;;;;;5000912;28;20026;-70
2023/09/13 05:11:04;;;;;;;34.67;13.52;;;;;;;;;;4988625;28;21004;-70
2023/09/13 05:13:31;;;;;;;36.60;12.75;;;;;;;;;;4984559;28;20714;-70
2023/09/13 05:15:56;;;;;;;36.22;13.18;;;;;;;;;;4985433;28;20483;-70
2023/09/13 05:18:22;;;;;;;30.73;12.50;;;;;;;;;;4997059;28;20531;-69
2023/09/13 05:20:47;;;;;;;33.47;13.15;;;;;;;;;;4979647;28;20041;-70
2023/09/13 05:23:12;;;;;;;30.85;13.43;;;;;;;;;;4989399;28;20057;-70
2023/09/13 05:25:45;;;;;;;31.60;12.35;;;;;;;;;;4995801;28;20023;-70
2023/09/13 05:28:12;;;;;;;38.03;12.53;;;;;;;;;;4989448;28;20046;-70
2023/09/13 05:30:38;;;;;;;34.72;13.60;;;;;;;;;;4983162;28;20121;-69
2023/09/13 05:33:03;;;;;;;33.60;12.75;;;;;;;;;;4984277;28;20113;-70
2023/09/13 05:35:31;;;;;;;32.85;12.73;;;;;;;;;;4996804;28;20086;-69
2023/09/13 05:37:56;;;;;;;29.88;11.82;;;;;;;;;;4992609;28;20073;-69
2023/09/13 05:40:21;;;;;;;34.17;12.35;;;;;;;;;;4992668;28;20050;-70
2023/09/13 05:42:47;;;;;;;33.13;12.65;;;;;;;;;;4998239;28;20038;-70
2023/09/13 05:45:12;;;;;;;29.85;12.45;;;;;;;;;;5000978;28;20085;-69
2023/09/13 05:47:37;;;;;;;30.33;11.25;;;;;;;;;;4998306;28;20034;-69
2023/09/13 05:50:03;;;;;;;33.90;12.13;;;;;;;;;;4983388;28;20018;-71
2023/09/13 05:52:28;;;;;;;30.75;11.77;;;;;;;;;;4990778;28;20442;-71
2023/09/13 05:54:54;;;;;;;29.70;12.10;;;;;;;;;;4995539;28;20029;-69
2023/09/13 05:57:19;;;;;;;32.40;12.10;;;;;;;;;;5003150;28;20044;-69
2023/09/13 05:59:44;;;;;;;30.05;11.90;;;;;;;;;;4998012;28;20040;-69
2023/09/13 06:02:10;;;;;;;28.67;11.50;;;;;;;;;;5000631;28;20448;-69
2023/09/13 06:04:35;;;;;;;30.42;12.30;;;;;;;;;;4993981;28;20025;-69
2023/09/13 06:07:00;;;;;;;32.72;11.73;;;;;;;;;;4994737;28;20034;-69
2023/09/13 06:09:26;;;;;;;31.73;11.50;;;;;;;;;;5000540;28;20039;-69
2023/09/13 06:11:51;;;;;;;27.85;11.95;;;;;;;;;;4999870;28;20057;-69
2023/09/13 06:14:18;;;;;;;31.38;11.40;;;;;;;;;;4995000;28;20042;-69
2023/09/13 06:16:43;;;;;;;26.25;11.75;;;;;;;;;;5005252;28;20630;-69
2023/09/13 06:19:09;;;;;;;30.95;11.75;;;;;;;;;;4980881;28;20507;-69
2023/09/13 06:21:34;;;;;;;28.15;11.20;;;;;;;;;;4994699;28;20034;-69
2023/09/13 06:24:00;;;;;;;27.45;11.15;;;;;;;;;;5001389;28;20038;-70
2023/09/13 06:26:25;;;;;;;28.45;11.23;;;;;;;;;;4996954;28;20041;-68
2023/09/13 06:28:51;;;;;;;26.60;11.55;;;;;;;;;;4982072;28;20281;-69
2023/09/13 06:31:16;;;;;;;30.10;11.57;;;;;;;;;;4984612;28;20153;-69
2023/09/13 06:33:42;;;;;;;27.58;11.05;;;;;;;;;;4983608;28;20504;-69
2023/09/13 06:36:07;;;;;;;26.27;11.10;;;;;;;;;;4988327;28;20531;-69
2023/09/13 06:38:33;;;;;;;24.70;11.20;;;;;;;;;;4996457;28;20578;-70
2023/09/13 06:40:58;;;;;;;24.25;10.15;;;;;;;;;;4994284;28;20085;-69
2023/09/13 06:43:25;;;;;;;24.90;11.02;;;;;;;;;;4999881;28;20138;-69
2023/09/13 06:45:50;;;;;;;28.33;10.98;;;;;;;;;;5000247;28;20048;-69
2023/09/13 06:48:16;;;;;;;22.75;10.85;;;;;;;;;;4994564;28;20034;-69
2023/09/13 06:50:42;;;;;;;27.67;10.20;;;;;;;;;;4989915;28;20129;-69
2023/09/13 06:53:07;;;;;;;27.58;10.27;;;;;;;;;;4990835;28;20042;-69
2023/09/13 06:55:33;;;;;;;23.00;10.95;;;;;;;;;;5000433;28;20052;-69
2023/09/13 06:58:00;;;;;;;22.33;11.07;;;;;;;;;;4996089;28;20042;-70
2023/09/13 07:00:27;;;;;;;23.15;10.02;;;;;;;;;;4992408;28;20038;-70
2023/09/13 07:02:52;;;;;;;24.40;9.90;;;;;;;;;;5001001;28;20049;-69
2023/09/13 07:05:18;;;;;;;22.05;10.13;;;;;;;;;;4999935;28;20037;-69
2023/09/13 07:07:43;;;;;;;25.35;10.57;;;;;;;;;;4987331;28;20241;-69
2023/09/13 07:10:09;;;;;;;27.38;10.43;;;;;;;;;;4984043;28;20459;-69
2023/09/13 07:12:34;;;;;;;22.48;10.25;;;;;;;;;;4978522;28;20035;-69
2023/09/13 07:14:59;;;;;;;24.75;10.35;;;;;;;;;;4991263;28;20049;-69
2023/09/13 07:17:25;;;;;;;23.83;10.40;;;;;;;;;;4994050;28;20045;-69
2023/09/13 07:19:50;;;;;;;26.60;10.95;;;;;;;;;;4994844;28;20026;-70
2023/09/13 07:22:15;;;;;;;18.20;9.57;;;;;;;;;;5002033;28;20750;-69
2023/09/13 07:24:41;;;;;;;20.40;9.95;;;;;;;;;;5000199;28;20130;-70
2023/09/13 07:27:06;;;;;;;22.58;10.05;;;;;;;;;;4994638;28;20030;-69
2023/09/13 07:29:31;;;;;;;21.63;9.27;;;;;;;;;;4994233;28;20118;-69
2023/09/13 07:31:57;;;;;;;19.67;8.38;;;;;;;;;;5000000;28;20050;-69
2023/09/13 07:34:22;;;;;;;18.77;8.43;;;;;;;;;;4997666;28;20041;-69
2023/09/13 07:36:48;;;;;;;19.58;8.77;;;;;;;;;;4988909;28;20038;-68
2023/09/13 07:39:13;;;;;;;23.42;8.15;;;;;;;;;;4993344;28;20113;-69
2023/09/13 07:41:38;;;;;;;18.63;7.43;;;;;;;;;;4998556;28;20034;-69
2023/09/13 07:44:04;;;;;;;16.38;6.68;;;;;;;;;;4978573;28;20052;-69
2023/09/13 07:46:30;;;;;;;19.15;5.80;;;;;;;;;;4990054;28;20101;-69
2023/09/13 07:48:55;;;;;;;15.30;5.38;;;;;;;;;;4994014;28;20487;-69
2023/09/13 07:51:21;;;;;;;12.93;4.22;;;;;;;;;;4995721;28;20042;-69
2023/09/13 07:53:46;;;;;;;9.68;4.30;;;;;;;;;;4998331;28;20113;-69
2023/09/13 07:56:11;;;;;;;8.80;4.28;;;;;;;;;;5001431;28;20038;-69
2023/09/13 07:58:37;;;;;;;12.32;3.95;;;;;;;;;;5009300;28;20028;-69
2023/09/13 08:01:02;;;;;;;14.50;3.95;;;;;;;;;;4994288;28;20407;-69
2023/09/13 08:03:27;;;;;;;13.70;3.78;;;;;;;;;;4996769;28;20085;-70
2023/09/13 08:05:53;;;;;;;8.10;2.97;;;;;;;;;;4981241;28;20062;-69
2023/09/13 08:08:22;;;;;;;8.55;2.83;;;;;;;;;;4974035;28;20089;-69
2023/09/13 08:10:49;;;;;;;7.50;2.70;;;;;;;;;;4974010;28;20038;-70
2023/09/13 08:13:15;;;;;;;8.07;2.72;;;;;;;;;;4967018;28;20070;-70
2023/09/13 08:15:40;;;;;;;8.48;2.78;;;;;;;;;;4996464;28;20081;-70
2023/09/13 08:18:06;;;;;;;11.77;2.83;;;;;;;;;;4982585;28;20184;-69
2023/09/13 08:20:31;;;;;;;7.38;2.65;;;;;;;;;;4982042;28;20052;-70
2023/09/13 08:22:57;;;;;;;7.15;2.60;;;;;;;;;;4989248;28;20030;-70
2023/09/13 08:25:22;;;;;;;12.10;2.80;;;;;;;;;;4974911;28;20415;-70
2023/09/13 08:27:50;;;;;;;12.70;2.60;;;;;;;;;;4985337;28;20073;-70
2023/09/13 08:30:16;;;;;;;14.30;4.05;;;;;;;;;;4986319;28;20030;-70
2023/09/13 08:32:41;;;;;;;6.15;2.60;;;;;;;;;;4993682;28;20036;-70
2023/09/13 08:35:07;;;;;;;12.57;3.10;;;;;;;;;;4999330;28;20030;-70
2023/09/13 08:37:32;;;;;;;10.68;2.20;;;;;;;;;;4999390;28;20033;-70
2023/09/13 08:39:57;;;;;;;12.07;3.08;;;;;;;;;;4992165;28;20586;-70
2023/09/13 08:42:24;;;;;;;6.70;2.53;;;;;;;;;;4992768;28;20566;-70
2023/09/13 08:44:51;;;;;;;10.60;2.55;;;;;;;;;;4979868;28;20080;-71
2023/09/13 08:47:17;;;;;;;8.95;2.88;;;;;;;;;;4992634;28;20081;-71
2023/09/13 08:49:45;;;;;;;12.80;2.83;;;;;;;;;;4985377;28;20427;-70
2023/09/13 08:52:11;;;;;;;8.63;2.50;;;;;;;;;;4973029;28;20139;-70
2023/09/13 08:54:37;;;;;;;10.38;2.25;;;;;;;;;;4976005;28;20506;-70
2023/09/13 08:57:03;;;;;;;11.50;2.25;;;;;;;;;;4983370;28;20653;-71
2023/09/13 08:59:29;;;;;;;10.70;2.53;;;;;;;;;;4995346;28;20038;-70
2023/09/13 09:01:55;;;;;;;6.80;1.83;;;;;;;;;;4996199;28;20041;-70
2023/09/13 09:04:21;;;;;;;8.55;2.10;;;;;;;;;;4993593;28;20026;-70
2023/09/13 09:06:47;;;;;;;10.05;2.10;;;;;;;;;;4990629;28;20057;-70
2023/09/13 09:09:17;;;;;;;12.02;1.80;;;;;;;;;;4990075;28;20121;-70
2023/09/13 09:11:44;;;;;;;11.43;2.83;;;;;;;;;;4971479;28;20656;-70
2023/09/13 09:14:14;;;;;;;7.72;2.08;;;;;;;;;;4992572;28;20496;-70
2023/09/13 09:16:41;;;;;;;11.82;2.30;;;;;;;;;;4975735;28;20053;-69
2023/09/13 09:19:07;;;;;;;5.63;1.70;;;;;;;;;;4988572;28;20093;-70
2023/09/13 09:21:35;;;;;;;5.75;2.00;;;;;;;;;;4977058;28;20034;-70
2023/09/13 09:24:00;;;;;;;16.08;2.10;;;;;;;;;;4982024;28;20049;-70
2023/09/13 09:26:26;;;;;;;9.02;2.17;;;;;;;;;;4983752;28;20117;-69
2023/09/13 09:28:51;;;;;;;7.00;2.20;;;;;;;;;;4978199;28;20018;-70
2023/09/13 09:31:19;;;;;;;7.80;2.03;;;;;;;;;;4985001;28;20062;-70
2023/09/13 09:33:45;;;;;;;9.32;2.10;;;;;;;;;;4997674;28;20053;-70
2023/09/13 09:36:13;;;;;;;8.35;2.05;;;;;;;;;;5002869;28;20038;-70
2023/09/13 09:38:43;;;;;;;9.18;2.10;;;;;;;;;;5005770;28;20085;-70
2023/09/13 09:41:09;;;;;;;5.63;1.80;;;;;;;;;;4984504;28;20120;-70
2023/09/13 09:43:34;;;;;;;7.20;2.05;;;;;;;;;;4988859;28;20405;-70
2023/09/13 09:45:59;;;;;;;5.95;2.00;;;;;;;;;;4993390;28;20030;-70
2023/09/13 09:48:26;;;;;;;6.18;1.92;;;;;;;;;;4999657;28;20037;-70
2023/09/13 09:50:53;;;;;;;8.55;2.08;;;;;;;;;;5002818;28;20039;-69
2023/09/13 09:53:20;;;;;;;7.40;2.10;;;;;;;;;;4991114;28;20189;-69
2023/09/13 09:55:45;;;;;;;6.20;2.17;;;;;;;;;;5003096;28;20022;-70
2023/09/13 09:58:12;;;;;;;14.55;3.03;;;;;;;;;;5001002;28;20045;-69
2023/09/13 10:00:47;;;;;;;9.38;2.28;;;;;;;;;;4985073;28;20027;-70
2023/09/13 10:03:17;;;;;;;7.20;2.20;;;;;;;;;;4994555;28;20077;-69
2023/09/13 10:06:03;;;;;;;6.18;2.80;;;;;;;;;;4994849;28;20037;-69
2023/09/13 10:08:48;;;;;;;7.55;3.13;;;;;;;;;;4998207;28;20030;-70
2023/09/13 10:11:15;;;;;;;4.68;3.22;;;;;;;;;;4987324;28;20611;-69
2023/09/13 10:13:42;;;;;;;7.07;3.05;;;;;;;;;;5002660;28;20049;-70
2023/09/13 10:16:08;;;;;;;4.78;2.70;;;;;;;;;;4987732;28;20023;-69
2023/09/13 10:18:45;;;;;;;7.63;2.92;;;;;;;;;;4990696;28;20077;-69
2023/09/13 10:21:14;;;;;;;7.53;2.83;;;;;;;;;;4999018;28;20056;-69
2023/09/13 10:23:41;;;;;;;8.00;3.03;;;;;;;;;;4990239;28;20520;-69
2023/09/13 10:26:09;;;;;;;8.15;3.03;;;;;;;;;;4992591;28;20030;-69
2023/09/13 10:28:37;;;;;;;7.82;3.17;;;;;;;;;;4993620;28;20030;-69
2023/09/13 10:31:07;;;;;;;4.90;2.78;;;;;;;;;;4996942;28;20035;-69
2023/09/13 10:33:35;;;;;;;7.53;4.00;;;;;;;;;;4990004;28;20034;-69
2023/09/13 10:36:06;;;;;;;5.63;4.20;;;;;;;;;;5000608;28;20415;-70
2023/09/13 10:38:46;;;;;;;6.00;4.10;;;;;;;;;;4997222;28;20042;-70
2023/09/13 10:41:17;;;;;;;6.25;4.13;;;;;;;;;;4993890;28;20068;-69
2023/09/13 10:43:43;;;;;;;8.77;4.75;;;;;;;;;;5002847;28;20022;-69
2023/09/13 10:46:09;;;;;;;9.55;5.20;;;;;;;;;;4995410;28;20522;-70
2023/09/13 10:48:36;;;;;;;10.43;4.80;;;;;;;;;;4998042;28;20030;-69
2023/09/13 10:51:03;;;;;;;13.10;4.10;;;;;;;;;;5002821;28;20038;-69
2023/09/13 10:53:29;;;;;;;9.05;4.05;;;;;;;;;;4998699;28;20030;-69
2023/09/13 10:55:54;;;;;;;10.35;4.82;;;;;;;;;;5006135;28;20053;-69
2023/09/13 10:58:21;;;;;;;9.93;5.18;;;;;;;;;;5001067;28;20026;-69
2023/09/13 11:00:50;;;;;;;8.75;5.40;;;;;;;;;;4990375;28;20508;-69
2023/09/13 11:03:17;;;;;;;9.38;4.93;;;;;;;;;;5000188;28;20547;-69
2023/09/13 11:05:46;;;;;;;10.82;5.88;;;;;;;;;;5000286;28;20037;-69
2023/09/13 11:08:26;;;;;;;7.60;6.22;;;;;;;;;;4992367;28;20026;-69
2023/09/13 11:10:52;;;;;;;6.28;4.53;;;;;;;;;;4993868;28;20030;-69
2023/09/13 11:13:28;;;;;;;7.35;4.00;;;;;;;;;;4997415;28;20041;-69
2023/09/13 11:15:55;;;;;;;7.70;4.32;;;;;;;;;;5013066;28;20121;-69
2023/09/13 11:18:25;;;;;;;8.63;4.95;;;;;;;;;;4996322;28;20035;-69
2023/09/13 11:20:52;;;;;;;6.43;4.45;;;;;;;;;;5000420;28;20562;-69
2023/09/13 11:23:21;;;;;;;12.23;4.65;;;;;;;;;;5004250;28;20030;-69
2023/09/13 11:25:49;;;;;;;8.23;4.70;;;;;;;;;;5004301;28;20510;-69
2023/09/13 11:28:36;;;;;;;8.73;5.22;;;;;;;;;;5001298;28;20092;-69
2023/09/13 11:31:02;;;;;;;8.50;5.50;;;;;;;;;;4992196;28;20040;-70
2023/09/13 11:33:28;;;;;;;5.93;4.57;;;;;;;;;;4999091;28;20392;-69
2023/09/13 11:35:56;;;;;;;7.75;4.55;;;;;;;;;;4995389;28;20039;-70
2023/09/13 11:38:23;;;;;;;8.82;5.10;;;;;;;;;;4999325;28;20038;-69
2023/09/13 11:40:49;;;;;;;6.95;4.63;;;;;;;;;;4998853;28;20057;-69
2023/09/13 11:43:28;;;;;;;6.90;4.13;;;;;;;;;;4995031;28;20046;-69
2023/09/13 11:45:57;;;;;;;7.35;4.10;;;;;;;;;;4991920;28;20037;-70
2023/09/13 11:48:26;;;;;;;5.78;3.63;;;;;;;;;;4988080;28;20551;-69
2023/09/13 11:50:52;;;;;;;5.57;3.60;;;;;;;;;;4994046;28;20121;-69
2023/09/13 11:53:25;;;;;;;5.50;3.38;;;;;;;;;;4996620;28;20042;-69
2023/09/13 11:55:53;;;;;;;5.00;2.65;;;;;;;;;;5000476;28;20038;-69
2023/09/13 11:58:29;;;;;;;3.58;2.30;;;;;;;;;;5002374;28;20061;-69
2023/09/13 12:00:55;;;;;;;5.25;2.45;;;;;;;;;;4984923;28;20669;-69
2023/09/13 12:03:21;;;;;;;3.30;2.55;;;;;;;;;;4998620;28;20042;-69
2023/09/13 12:05:47;;;;;;;3.13;2.30;;;;;;;;;;5000451;28;20069;-70
2023/09/13 12:08:24;;;;;;;5.07;2.13;;;;;;;;;;5001940;28;20042;-69
2023/09/13 12:10:50;;;;;;;5.28;2.80;;;;;;;;;;4992347;28;20026;-70
2023/09/13 12:13:17;;;;;;;3.33;2.05;;;;;;;;;;4996313;28;20027;-69
2023/09/13 12:16:02;;;;;;;4.03;2.60;;;;;;;;;;4999417;28;20044;-70
2023/09/13 12:18:30;;;;;;;3.53;2.60;;;;;;;;;;5001991;28;20534;-69
2023/09/13 12:20:57;;;;;;;2.92;2.42;;;;;;;;;;5001623;28;20038;-69
2023/09/13 12:23:22;;;;;;;5.07;2.30;;;;;;;;;;4999574;28;20066;-69
2023/09/13 12:25:48;;;;;;;6.05;3.60;;;;;;;;;;4999416;28;20026;-69
2023/09/13 12:28:27;;;;;;;4.70;2.67;;;;;;;;;;4998887;28;20507;-69
2023/09/13 12:30:53;;;;;;;6.70;2.97;;;;;;;;;;4998029;28;20038;-69
2023/09/13 12:33:20;;;;;;;4.72;3.10;;;;;;;;;;4992596;28;20034;-69
2023/09/13 12:35:47;;;;;;;4.53;2.58;;;;;;;;;;4995697;28;20034;-69
2023/09/13 12:38:12;;;;;;;4.95;3.15;;;;;;;;;;5000172;28;20050;-69
2023/09/13 12:40:38;;;;;;;3.25;2.67;;;;;;;;;;4998479;28;20077;-69
2023/09/13 12:43:04;;;;;;;4.15;2.38;;;;;;;;;;4993457;28;20034;-69
2023/09/13 12:45:30;;;;;;;2.92;2.63;;;;;;;;;;4994630;28;20073;-69
2023/09/13 12:47:56;;;;;;;3.75;2.90;;;;;;;;;;5000495;28;20069;-70
2023/09/13 12:50:21;;;;;;;3.42;2.53;;;;;;;;;;4999375;28;20034;-69
2023/09/13 12:52:50;;;;;;;5.57;2.72;;;;;;;;;;4991288;28;20479;-70
2023/09/13 12:55:16;;;;;;;4.43;2.40;;;;;;;;;;4999903;28;20459;-70
2023/09/13 12:57:41;;;;;;;3.55;2.10;;;;;;;;;;4993407;28;20034;-69
2023/09/13 13:00:11;;;;;;;2.67;2.20;;;;;;;;;;4984166;28;20038;-69
2023/09/13 13:02:37;;;;;;;3.20;1.90;;;;;;;;;;4979330;28;20524;-69
2023/09/13 13:05:03;;;;;;;2.72;2.10;;;;;;;;;;4992142;28;20519;-69
2023/09/13 13:07:33;;;;;;;2.75;1.98;;;;;;;;;;4992991;28;20014;-69
2023/09/13 13:10:03;;;;;;;4.13;1.90;;;;;;;;;;4997678;28;20598;-70
2023/09/13 13:12:29;;;;;;;2.88;1.92;;;;;;;;;;4993221;28;20040;-70
2023/09/13 13:14:54;;;;;;;2.42;2.17;;;;;;;;;;4999849;28;20034;-70
2023/09/13 13:17:21;;;;;;;2.30;1.90;;;;;;;;;;5001915;28;20132;-69
2023/09/13 13:19:48;;;;;;;4.25;1.60;;;;;;;;;;4992725;28;20026;-69
2023/09/13 13:22:17;;;;;;;2.75;1.60;;;;;;;;;;5003807;28;20125;-69
2023/09/13 13:24:46;;;;;;;3.38;1.70;;;;;;;;;;5003639;28;20570;-69
2023/09/13 13:27:11;;;;;;;6.72;1.90;;;;;;;;;;4984109;28;20402;-69
2023/09/13 13:29:38;;;;;;;1.48;1.38;;;;;;;;;;4996935;28;20563;-69
2023/09/13 13:32:04;;;;;;;2.60;1.80;;;;;;;;;;4997557;28;20109;-69
2023/09/13 13:34:30;;;;;;;2.15;1.70;;;;;;;;;;4996751;28;20037;-69
2023/09/13 13:36:55;;;;;;;3.85;1.80;;;;;;;;;;4990037;28;20031;-69
2023/09/13 13:39:21;;;;;;;5.00;1.80;;;;;;;;;;5003593;28;20050;-70
2023/09/13 13:41:48;;;;;;;2.35;1.60;;;;;;;;;;4998105;28;20129;-69
2023/09/13 13:44:17;;;;;;;2.63;1.80;;;;;;;;;;5000072;28;20058;-69
2023/09/13 13:46:43;;;;;;;2.15;1.45;;;;;;;;;;5001613;28;20017;-69
2023/09/13 13:49:10;;;;;;;1.83;1.60;;;;;;;;;;5003959;28;20034;-69
2023/09/13 13:51:37;;;;;;;1.73;1.60;;;;;;;;;;5003769;28;20042;-69
2023/09/13 13:54:03;;;;;;;1.95;1.70;;;;;;;;;;4995972;28;20033;-69
2023/09/13 13:56:30;;;;;;;2.28;1.50;;;;;;;;;;4999720;28;20057;-69
2023/09/13 13:58:56;;;;;;;1.80;1.60;;;;;;;;;;5002891;28;20026;-69
2023/09/13 14:01:21;;;;;;;5.38;1.58;;;;;;;;;;4995669;28;20045;-69
2023/09/13 14:03:47;;;;;;;1.83;1.45;;;;;;;;;;4997011;28;20065;-69
2023/09/13 14:06:13;;;;;;;1.48;1.38;;;;;;;;;;5002676;28;20459;-69
2023/09/13 14:08:38;;;;;;;1.60;1.20;;;;;;;;;;5001699;28;20129;-69
2023/09/13 14:11:03;;;;;;;3.75;1.30;;;;;;;;;;4995781;28;20440;-68
2023/09/13 14:13:30;;;;;;;1.17;1.08;;;;;;;;;;4995457;28;20026;-70
2023/09/13 14:15:56;;;;;;;1.20;1.10;;;;;;;;;;5002868;28;20034;-69
2023/09/13 14:18:22;;;;;;;1.98;1.20;;;;;;;;;;4986999;28;20142;-69
2023/09/13 14:20:47;;;;;;;1.23;1.13;;;;;;;;;;5000525;28;20037;-69
2023/09/13 14:23:14;;;;;;;1.35;1.20;;;;;;;;;;4994207;28;20042;-70
2023/09/13 14:25:41;;;;;;;5.85;1.20;;;;;;;;;;4988625;28;20015;-69
2023/09/13 14:28:07;;;;;;;2.53;1.20;;;;;;;;;;5002044;28;20029;-69